Time;durP1;ratioP1;P1;durP2;ratioP2;P2;SDS_P1;SDS_P2;PMS_P1;PMS_P2;Temp;Humidity;BMP_temperature;BMP_pressure;BME280_temperature;BME280_humidity;BME280_pressure;Samples;Min_cycle;Max_cycle;Signal;HPM_P1;HPM_P2
2023/12/03 00:02:17;;;;;;;48.58;44.45;;;10.80;99.90;;;;;;4986486;28;20097;-64
2023/12/03 00:04:44;;;;;;;44.10;40.17;;;10.70;99.90;;;;;;4985296;28;20424;-64
2023/12/03 00:07:10;;;;;;;40.30;36.75;;;11.50;99.90;;;;;;4985980;28;20117;-64
2023/12/03 00:09:36;;;;;;;40.35;36.90;;;11.50;99.90;;;;;;4986470;28;20043;-64
2023/12/03 00:12:07;;;;;;;40.85;36.67;;;10.90;99.90;;;;;;4985665;28;20046;-64
2023/12/03 00:14:34;;;;;;;37.78;34.47;;;11.30;99.90;;;;;;4990346;28;20528;-64
2023/12/03 00:17:00;;;;;;;40.80;36.88;;;11.30;99.90;;;;;;4986017;28;20054;-64
2023/12/03 00:19:25;;;;;;;37.47;34.25;;;11.10;99.90;;;;;;4985280;28;20048;-64
2023/12/03 00:21:51;;;;;;;37.08;33.88;;;10.90;99.90;;;;;;4986053;28;20082;-63
2023/12/03 00:24:17;;;;;;;44.28;36.03;;;11.20;99.90;;;;;;4986046;28;20053;-64
2023/12/03 00:26:43;;;;;;;39.53;36.42;;;12.10;99.90;;;;;;4985526;28;20491;-63
2023/12/03 00:29:10;;;;;;;39.10;36.10;;;10.50;99.90;;;;;;4985600;28;20038;-63
2023/12/03 00:31:35;;;;;;;54.97;50.50;;;9.50;99.90;;;;;;4985985;28;20049;-63
2023/12/03 00:34:02;;;;;;;49.35;44.75;;;9.10;99.90;;;;;;4985954;28;20413;-64
2023/12/03 00:36:28;;;;;;;47.90;43.35;;;9.60;99.90;;;;;;4985796;28;20518;-63
2023/12/03 00:38:53;;;;;;;42.20;38.60;;;10.20;99.90;;;;;;5002389;28;20041;-64
2023/12/03 00:41:19;;;;;;;44.58;40.85;;;10.50;99.90;;;;;;4998401;28;20048;-64
2023/12/03 00:43:44;;;;;;;42.45;38.85;;;10.20;99.90;;;;;;4981966;28;20049;-63
2023/12/03 00:46:10;;;;;;;38.60;35.10;;;10.20;99.90;;;;;;4974189;28;20184;-64
2023/12/03 00:48:36;;;;;;;39.63;36.20;;;10.80;99.90;;;;;;4989198;28;20042;-64
2023/12/03 00:51:01;;;;;;;40.70;37.30;;;10.50;99.90;;;;;;4988640;28;20049;-63
2023/12/03 00:53:27;;;;;;;47.03;43.20;;;10.50;99.90;;;;;;4989387;28;20069;-64
2023/12/03 00:55:54;;;;;;;45.50;41.83;;;10.10;99.90;;;;;;4987171;28;20161;-63
2023/12/03 00:58:20;;;;;;;43.78;40.15;;;9.60;99.90;;;;;;4974779;28;20408;-63
2023/12/03 01:00:45;;;;;;;45.38;41.47;;;9.80;99.90;;;;;;4988121;28;20050;-65
2023/12/03 01:03:11;;;;;;;51.35;46.95;;;9.10;99.90;;;;;;4989423;28;20116;-66
2023/12/03 01:05:37;;;;;;;66.15;41.30;;;9.70;99.90;;;;;;4988700;28;20341;-66
2023/12/03 01:08:02;;;;;;;40.85;37.30;;;10.70;99.90;;;;;;4997426;28;20099;-65
2023/12/03 01:10:28;;;;;;;36.53;32.72;;;10.30;99.90;;;;;;4993361;28;20042;-66
2023/12/03 01:12:53;;;;;;;40.50;36.80;;;10.50;99.90;;;;;;4993526;28;20038;-66
2023/12/03 01:15:19;;;;;;;41.22;37.97;;;10.50;99.90;;;;;;4987930;28;20054;-65
2023/12/03 01:17:44;;;;;;;45.33;41.38;;;11.20;99.90;;;;;;4988396;28;20556;-66
2023/12/03 01:20:10;;;;;;;46.60;42.25;;;11.10;99.90;;;;;;4995249;28;20416;-66
2023/12/03 01:22:36;;;;;;;40.25;37.08;;;11.00;99.90;;;;;;4994487;28;20034;-66
2023/12/03 01:25:01;;;;;;;42.90;39.22;;;10.80;99.90;;;;;;4988823;28;20057;-66
2023/12/03 01:27:27;;;;;;;41.17;37.45;;;10.10;99.90;;;;;;4988266;28;20039;-66
2023/12/03 01:29:56;;;;;;;41.67;38.08;;;10.30;99.90;;;;;;5003044;28;20085;-66
2023/12/03 01:32:21;;;;;;;39.35;35.95;;;10.10;99.90;;;;;;4988022;28;20042;-65
2023/12/03 01:34:47;;;;;;;42.83;38.83;;;10.40;99.90;;;;;;4988183;28;20048;-66
2023/12/03 01:37:12;;;;;;;43.20;39.30;;;10.30;99.90;;;;;;4987902;28;20500;-65
2023/12/03 01:39:38;;;;;;;43.20;38.78;;;10.70;99.90;;;;;;4988141;28;20038;-66
2023/12/03 01:42:04;;;;;;;92.78;34.75;;;10.60;99.90;;;;;;4987198;28;20050;-65
2023/12/03 01:44:29;;;;;;;36.20;33.10;;;11.00;99.90;;;;;;4988982;28;20054;-65
2023/12/03 01:46:58;;;;;;;38.33;34.67;;;11.00;99.90;;;;;;4986510;28;20053;-65
2023/12/03 01:49:24;;;;;;;39.72;36.42;;;10.70;99.90;;;;;;4988232;28;20042;-66
2023/12/03 01:51:50;;;;;;;43.63;39.95;;;11.20;99.90;;;;;;4988643;28;20125;-66
2023/12/03 01:54:16;;;;;;;44.45;40.65;;;10.60;99.90;;;;;;4991777;28;20041;-65
2023/12/03 01:56:41;;;;;;;44.08;39.65;;;11.10;99.90;;;;;;5002090;28;20042;-66
2023/12/03 01:59:07;;;;;;;42.13;37.60;;;11.30;99.90;;;;;;4987684;28;20473;-65
2023/12/03 02:01:33;;;;;;;40.47;36.95;;;11.30;99.90;;;;;;5001871;28;20058;-66
2023/12/03 02:03:58;;;;;;;40.83;36.90;;;10.70;99.90;;;;;;4988045;28;20129;-65
2023/12/03 02:06:24;;;;;;;40.22;36.72;;;10.80;99.90;;;;;;4994164;28;20038;-66
2023/12/03 02:08:50;;;;;;;39.40;36.03;;;10.70;99.90;;;;;;4990226;28;20126;-62
2023/12/03 02:11:15;;;;;;;39.88;36.50;;;10.20;99.90;;;;;;5000086;28;20042;-62
2023/12/03 02:13:42;;;;;;;47.88;43.58;;;9.50;99.90;;;;;;4988327;28;20463;-62
2023/12/03 02:16:08;;;;;;;48.03;43.83;;;9.10;99.90;;;;;;4987039;28;20511;-61
2023/12/03 02:18:34;;;;;;;679.85;66.53;;;9.30;99.90;;;;;;4987747;28;20420;-63
2023/12/03 02:21:00;;;;;;;42.20;38.50;;;9.50;99.90;;;;;;4987352;28;20039;-63
2023/12/03 02:23:29;;;;;;;39.83;36.28;;;10.30;99.90;;;;;;4987296;28;20495;-63
2023/12/03 02:25:54;;;;;;;37.22;33.50;;;10.10;99.90;;;;;;4989092;28;20112;-62
2023/12/03 02:28:20;;;;;;;36.78;33.33;;;10.30;99.90;;;;;;4988863;28;20050;-62
2023/12/03 02:30:45;;;;;;;36.92;33.53;;;11.00;99.90;;;;;;4987848;28;20046;-62
2023/12/03 02:33:11;;;;;;;38.47;35.00;;;10.70;99.90;;;;;;4986529;28;20042;-62
2023/12/03 02:35:37;;;;;;;38.97;35.50;;;11.00;99.90;;;;;;5001839;28;20034;-62
2023/12/03 02:38:02;;;;;;;37.67;34.25;;;10.50;99.90;;;;;;4986381;28;20038;-62
2023/12/03 02:40:32;;;;;;;38.38;34.88;;;10.70;99.90;;;;;;4997768;28;20100;-62
2023/12/03 02:42:58;;;;;;;39.38;36.08;;;10.30;99.90;;;;;;4988531;28;20046;-61
2023/12/03 02:45:23;;;;;;;41.55;37.60;;;9.70;99.90;;;;;;4986781;28;20057;-63
2023/12/03 02:47:49;;;;;;;45.85;41.85;;;9.40;99.90;;;;;;4986721;28;20082;-61
2023/12/03 02:50:14;;;;;;;36.95;33.85;;;9.60;99.90;;;;;;4986661;28;20493;-63
2023/12/03 02:52:41;;;;;;;35.63;32.63;;;10.00;99.90;;;;;;4986737;28;20540;-62
2023/12/03 02:55:07;;;;;;;35.67;32.65;;;10.00;99.90;;;;;;4986280;28;20428;-63
2023/12/03 02:57:33;;;;;;;35.58;32.42;;;10.40;99.90;;;;;;4984670;28;20049;-61
2023/12/03 02:59:58;;;;;;;36.50;33.20;;;11.00;99.90;;;;;;4986486;28;20054;-64
2023/12/03 03:02:24;;;;;;;36.88;33.75;;;11.00;99.90;;;;;;4985788;28;20054;-62
2023/12/03 03:04:50;;;;;;;35.28;32.28;;;11.00;99.90;;;;;;4984607;28;20148;-63
2023/12/03 03:07:15;;;;;;;35.08;31.88;;;10.50;99.90;;;;;;4985860;28;20497;-63
2023/12/03 03:09:41;;;;;;;31.65;28.83;;;11.00;99.90;;;;;;4986382;28;20078;-61
2023/12/03 03:12:06;;;;;;;35.95;32.70;;;10.70;99.90;;;;;;4990080;28;20484;-62
2023/12/03 03:14:32;;;;;;;37.50;34.00;;;10.30;99.90;;;;;;5000382;28;20579;-62
2023/12/03 03:16:57;;;;;;;48.10;43.88;;;9.70;99.90;;;;;;4999405;28;20050;-62
2023/12/03 03:19:23;;;;;;;399.38;52.80;;;9.00;99.90;;;;;;4984410;28;20046;-63
2023/12/03 03:21:48;;;;;;;39.35;35.95;;;9.80;99.90;;;;;;4986306;28;20049;-63
2023/12/03 03:24:14;;;;;;;39.03;35.75;;;9.90;99.90;;;;;;4986440;28;20096;-63
2023/12/03 03:26:40;;;;;;;34.78;31.63;;;10.80;99.90;;;;;;4986088;28;20116;-63
2023/12/03 03:29:06;;;;;;;37.17;34.05;;;11.10;99.90;;;;;;4996630;28;20052;-63
2023/12/03 03:31:32;;;;;;;35.85;32.83;;;10.50;99.90;;;;;;5005276;28;20107;-64
2023/12/03 03:33:57;;;;;;;34.33;31.42;;;10.90;99.90;;;;;;5005961;28;20046;-63
2023/12/03 03:36:23;;;;;;;32.85;29.85;;;10.70;99.90;;;;;;5005104;28;20042;-64
2023/12/03 03:38:49;;;;;;;32.72;29.63;;;11.40;99.90;;;;;;4985846;28;20133;-63
2023/12/03 03:41:15;;;;;;;34.60;31.50;;;11.40;99.90;;;;;;4994343;28;20526;-63
2023/12/03 03:43:41;;;;;;;36.13;32.88;;;10.80;99.90;;;;;;5005511;28;20038;-63
2023/12/03 03:46:06;;;;;;;39.40;36.13;;;10.40;99.90;;;;;;4988186;28;20543;-63
2023/12/03 03:48:32;;;;;;;43.83;39.35;;;10.00;99.90;;;;;;4985878;28;20049;-63
2023/12/03 03:50:58;;;;;;;41.90;38.20;;;9.90;99.90;;;;;;4986106;28;20046;-64
2023/12/03 03:53:23;;;;;;;38.13;34.72;;;9.90;99.90;;;;;;4987132;28;20397;-63
2023/12/03 03:55:49;;;;;;;36.55;33.47;;;10.90;99.90;;;;;;4991465;28;20512;-63
2023/12/03 03:58:14;;;;;;;35.75;32.85;;;11.00;99.90;;;;;;4992913;28;20093;-63
2023/12/03 04:00:40;;;;;;;37.53;34.42;;;11.90;99.90;;;;;;4970618;28;20051;-63
2023/12/03 04:03:05;;;;;;;34.05;31.02;;;11.10;99.90;;;;;;4981882;28;20591;-64
2023/12/03 04:05:31;;;;;;;38.13;34.38;;;11.20;99.90;;;;;;4986785;28;20045;-63
2023/12/03 04:07:57;;;;;;;35.88;32.08;;;11.00;99.90;;;;;;4985452;28;20713;-63
2023/12/03 04:10:22;;;;;;;35.03;31.90;;;10.90;99.90;;;;;;4986753;28;20489;-63
2023/12/03 04:12:48;;;;;;;38.17;34.90;;;10.90;99.90;;;;;;4986919;28;20113;-63
2023/12/03 04:15:14;;;;;;;39.25;36.05;;;9.90;99.90;;;;;;5001128;28;20054;-63
2023/12/03 04:17:39;;;;;;;45.53;41.67;;;10.00;99.90;;;;;;5023895;28;20056;-63
2023/12/03 04:20:06;;;;;;;51.13;46.75;;;9.50;99.90;;;;;;5008878;28;20049;-63
2023/12/03 04:22:32;;;;;;;132.88;44.00;;;9.60;99.90;;;;;;4995915;28;20424;-63
2023/12/03 04:24:58;;;;;;;38.35;35.22;;;10.80;99.90;;;;;;4989531;28;20398;-63
2023/12/03 04:27:25;;;;;;;37.72;34.55;;;10.50;99.90;;;;;;4990171;28;20045;-63
2023/12/03 04:29:51;;;;;;;36.42;33.15;;;10.60;99.90;;;;;;4988915;28;20126;-63
2023/12/03 04:32:16;;;;;;;37.70;34.28;;;10.80;99.90;;;;;;4989896;28;20145;-64
2023/12/03 04:34:42;;;;;;;38.85;35.17;;;11.70;99.90;;;;;;4989570;28;20046;-63
2023/12/03 04:37:07;;;;;;;39.20;35.78;;;11.30;99.90;;;;;;4988776;28;20049;-64
2023/12/03 04:39:34;;;;;;;38.00;34.28;;;10.60;99.90;;;;;;4989617;28;20043;-64
2023/12/03 04:42:00;;;;;;;36.88;33.55;;;11.20;99.90;;;;;;4989247;28;20058;-63
2023/12/03 04:44:26;;;;;;;41.55;37.95;;;10.20;99.90;;;;;;4998243;28;20050;-64
2023/12/03 04:46:52;;;;;;;41.30;37.40;;;9.70;99.90;;;;;;5009213;28;20586;-63
2023/12/03 04:49:17;;;;;;;42.65;38.72;;;9.70;99.90;;;;;;5001864;28;20127;-63
2023/12/03 04:51:43;;;;;;;47.88;43.33;;;9.10;99.90;;;;;;4989092;28;20038;-62
2023/12/03 04:54:08;;;;;;;46.17;41.50;;;9.40;99.90;;;;;;4988278;28;20132;-63
2023/12/03 04:56:34;;;;;;;40.90;37.05;;;9.80;99.90;;;;;;4988502;28;20042;-63
2023/12/03 04:58:59;;;;;;;76.28;37.42;;;10.40;99.90;;;;;;4995146;28;20041;-64
2023/12/03 05:01:25;;;;;;;41.80;37.10;;;10.50;99.90;;;;;;4997361;28;20828;-63
2023/12/03 05:03:50;;;;;;;41.95;38.55;;;10.30;99.90;;;;;;4989591;28;20124;-64
2023/12/03 05:06:16;;;;;;;42.60;38.45;;;10.40;99.90;;;;;;4988301;28;20038;-63
2023/12/03 05:08:42;;;;;;;39.38;36.08;;;11.00;99.90;;;;;;4988386;28;20042;-64
2023/12/03 05:11:07;;;;;;;43.30;39.53;;;10.80;99.90;;;;;;4987768;28;20501;-63
2023/12/03 05:13:34;;;;;;;40.75;37.17;;;10.90;99.90;;;;;;4992839;28;20586;-64
2023/12/03 05:16:06;;;;;;;43.38;38.95;;;10.40;99.90;;;;;;4992063;28;20145;-63
2023/12/03 05:18:32;;;;;;;45.88;40.75;;;10.90;99.90;;;;;;4988889;28;20050;-63
2023/12/03 05:20:57;;;;;;;43.28;39.22;;;10.20;99.90;;;;;;4988451;28;20519;-64
2023/12/03 05:23:24;;;;;;;40.22;36.53;;;10.70;99.90;;;;;;4986331;28;20074;-63
2023/12/03 05:25:50;;;;;;;39.60;35.80;;;10.70;99.90;;;;;;4987627;28;20070;-63
2023/12/03 05:28:15;;;;;;;39.05;35.42;;;10.00;99.90;;;;;;4993920;28;20046;-63
2023/12/03 05:30:41;;;;;;;40.22;36.03;;;10.70;99.90;;;;;;5004606;28;20488;-64
2023/12/03 05:33:06;;;;;;;40.80;37.30;;;9.90;99.90;;;;;;4988200;28;20164;-63
2023/12/03 05:35:32;;;;;;;41.65;37.95;;;10.10;99.90;;;;;;4987660;28;20042;-63
2023/12/03 05:37:58;;;;;;;45.20;40.70;;;10.00;99.90;;;;;;4988122;28;20405;-64
2023/12/03 05:40:24;;;;;;;45.40;38.38;;;9.50;99.90;;;;;;4987144;28;20124;-63
2023/12/03 05:42:50;;;;;;;45.28;41.10;;;10.20;99.90;;;;;;4988421;28;20034;-63
2023/12/03 05:45:15;;;;;;;45.13;41.00;;;9.50;99.90;;;;;;4987539;28;20201;-63
2023/12/03 05:47:41;;;;;;;45.95;41.90;;;10.00;99.90;;;;;;4988170;28;20034;-62
2023/12/03 05:50:07;;;;;;;46.38;42.10;;;9.60;99.90;;;;;;4987135;28;20057;-62
2023/12/03 05:52:32;;;;;;;41.83;38.03;;;9.30;99.90;;;;;;4987732;28;20049;-64
2023/12/03 05:54:58;;;;;;;42.97;39.08;;;9.70;99.90;;;;;;4987669;28;20101;-63
2023/12/03 05:57:24;;;;;;;47.60;43.38;;;9.10;99.90;;;;;;4987464;28;20048;-64
2023/12/03 05:59:51;;;;;;;46.20;42.08;;;9.60;99.90;;;;;;4987389;28;20137;-63
2023/12/03 06:02:16;;;;;;;44.70;40.60;;;9.20;99.90;;;;;;4990913;28;20504;-62
2023/12/03 06:04:42;;;;;;;46.88;42.65;;;9.20;99.90;;;;;;4999281;28;20047;-63
2023/12/03 06:07:08;;;;;;;46.33;41.95;;;9.50;99.90;;;;;;4981851;28;20478;-62
2023/12/03 06:09:33;;;;;;;47.53;43.22;;;10.60;99.90;;;;;;4981316;28;20046;-63
2023/12/03 06:11:59;;;;;;;44.58;40.45;;;9.40;99.90;;;;;;4986963;28;20046;-62
2023/12/03 06:14:25;;;;;;;45.53;41.45;;;8.90;99.90;;;;;;4987584;28;20050;-62
2023/12/03 06:16:51;;;;;;;793.15;72.90;;;9.10;99.90;;;;;;4987901;28;20053;-62
2023/12/03 06:19:17;;;;;;;44.50;40.10;;;9.00;99.90;;;;;;5010079;28;20042;-62
2023/12/03 06:21:42;;;;;;;40.47;36.42;;;9.20;99.90;;;;;;4987727;28;20077;-62
2023/12/03 06:24:08;;;;;;;50.85;43.65;;;9.10;99.90;;;;;;4997263;28;20359;-63
2023/12/03 06:26:34;;;;;;;48.08;43.97;;;9.00;99.90;;;;;;4987571;28;20069;-63
2023/12/03 06:28:59;;;;;;;46.70;41.97;;;9.50;99.90;;;;;;4987723;28;20105;-62
2023/12/03 06:31:25;;;;;;;46.47;42.28;;;9.40;99.90;;;;;;4987923;28;20049;-64
2023/12/03 06:33:50;;;;;;;47.05;42.75;;;8.80;99.90;;;;;;4998110;28;20153;-62
2023/12/03 06:36:16;;;;;;;47.53;43.22;;;9.30;99.90;;;;;;4986967;28;20524;-63
2023/12/03 06:38:41;;;;;;;46.10;41.80;;;9.30;99.90;;;;;;4987080;28;20445;-63
2023/12/03 06:41:07;;;;;;;42.30;38.25;;;9.20;99.90;;;;;;4986629;28;20645;-62
2023/12/03 06:43:32;;;;;;;48.20;43.70;;;8.80;99.90;;;;;;4987249;28;20429;-63
2023/12/03 06:45:59;;;;;;;45.92;41.58;;;9.20;99.90;;;;;;4987217;28;20162;-63
2023/12/03 06:48:24;;;;;;;44.58;40.63;;;9.00;99.90;;;;;;4986247;28;20779;-62
2023/12/03 06:50:50;;;;;;;45.88;41.78;;;8.90;99.90;;;;;;5004655;28;20454;-63
2023/12/03 06:53:16;;;;;;;44.47;40.55;;;8.90;99.90;;;;;;4991389;28;20034;-64
2023/12/03 06:55:41;;;;;;;43.30;39.45;;;9.30;99.90;;;;;;4986017;28;20100;-64
2023/12/03 06:58:07;;;;;;;42.97;39.17;;;8.80;99.90;;;;;;4986243;28;20049;-63
2023/12/03 07:00:33;;;;;;;45.72;41.47;;;9.10;99.90;;;;;;4986798;28;20041;-63
2023/12/03 07:02:59;;;;;;;47.53;43.28;;;8.90;99.90;;;;;;4986628;28;20054;-63
2023/12/03 07:05:26;;;;;;;49.28;44.83;;;9.60;99.90;;;;;;4990384;28;20050;-64
2023/12/03 07:07:51;;;;;;;45.70;41.35;;;9.10;99.90;;;;;;4990773;28;20053;-64
2023/12/03 07:10:18;;;;;;;49.38;44.28;;;9.20;99.90;;;;;;5005537;28;20463;-63
2023/12/03 07:12:44;;;;;;;47.08;42.25;;;10.00;99.90;;;;;;5005632;28;20038;-63
2023/12/03 07:15:10;;;;;;;51.25;46.00;;;10.00;99.90;;;;;;4991246;28;20193;-64
2023/12/03 07:17:35;;;;;;;58.05;47.15;;;9.90;99.90;;;;;;4985604;28;20148;-63
2023/12/03 07:20:01;;;;;;;144.70;49.45;;;10.20;99.90;;;;;;4986942;28;20073;-64
2023/12/03 07:22:27;;;;;;;57.28;47.25;;;10.20;99.90;;;;;;4984646;28;20042;-64
2023/12/03 07:24:53;;;;;;;64.65;49.35;;;9.70;99.90;;;;;;4985068;28;20465;-64
2023/12/03 07:27:19;;;;;;;66.05;48.33;;;10.00;99.90;;;;;;4985875;28;20121;-64
2023/12/03 07:29:45;;;;;;;64.70;47.42;;;9.80;99.90;;;;;;4984555;28;20512;-64
2023/12/03 07:32:10;;;;;;;83.97;53.20;;;9.80;99.90;;;;;;4967380;28;20392;-64
2023/12/03 07:34:36;;;;;;;95.38;50.95;;;10.40;99.90;;;;;;4986104;28;20077;-64
2023/12/03 07:37:02;;;;;;;185.65;55.08;;;10.00;99.90;;;;;;4986039;28;20038;-64
2023/12/03 07:39:28;;;;;;;317.98;57.22;;;10.10;99.90;;;;;;4996663;28;20472;-64
2023/12/03 07:41:54;;;;;;;360.20;52.25;;;10.70;99.90;;;;;;4994059;28;20121;-64
2023/12/03 07:44:21;;;;;;;426.15;58.67;;;10.30;99.90;;;;;;4983744;28;20402;-64
2023/12/03 07:46:46;;;;;;;354.55;54.90;;;10.10;99.90;;;;;;4981676;28;20108;-63
2023/12/03 07:49:12;;;;;;;403.55;59.28;;;10.20;99.90;;;;;;4982584;28;20043;-64
2023/12/03 07:51:38;;;;;;;475.52;61.30;;;10.20;99.90;;;;;;4996406;28;20038;-64
2023/12/03 07:54:04;;;;;;;230.63;52.53;;;10.90;99.90;;;;;;4979889;28;20546;-64
2023/12/03 07:56:40;;;;;;;195.82;55.45;;;10.40;99.90;;;;;;4981204;28;20053;-63
2023/12/03 07:59:06;;;;;;;;;;;10.40;99.90;;;;;;4986216;28;20125;-62
2023/12/03 08:01:32;;;;;;;132.93;54.35;;;10.40;99.90;;;;;;4987548;28;19929;-62
2023/12/03 08:03:58;;;;;;;104.93;54.63;;;10.50;99.90;;;;;;4987591;28;20463;-62
2023/12/03 08:06:24;;;;;;;171.18;58.65;;;10.80;99.90;;;;;;4985143;28;20068;-64
2023/12/03 08:08:52;;;;;;;127.88;55.33;;;11.90;99.90;;;;;;4980827;28;20472;-63
2023/12/03 08:11:18;;;;;;;81.20;52.92;;;10.40;99.90;;;;;;4987419;28;20046;-61
2023/12/03 08:13:44;;;;;;;80.32;54.13;;;11.10;99.90;;;;;;4993578;28;20046;-63
2023/12/03 08:16:09;;;;;;;106.75;58.47;;;10.90;99.90;;;;;;4988962;28;20046;-62
2023/12/03 08:18:35;;;;;;;123.72;62.13;;;10.80;99.90;;;;;;4979885;28;20080;-64
2023/12/03 08:21:01;;;;;;;97.10;59.80;;;10.60;99.90;;;;;;4989602;28;20383;-63
2023/12/03 08:23:26;;;;;;;123.28;62.97;;;10.70;99.90;;;;;;4983973;28;20044;-62
2023/12/03 08:25:52;;;;;;;109.28;59.25;;;10.50;99.90;;;;;;4990231;28;20456;-62
2023/12/03 08:28:18;;;;;;;91.57;57.55;;;11.00;99.90;;;;;;4988423;28;20065;-61
2023/12/03 08:30:44;;;;;;;102.90;63.53;;;10.50;99.90;;;;;;4990143;28;20101;-62
2023/12/03 08:33:09;;;;;;;95.07;61.05;;;11.10;99.90;;;;;;4988685;28;20140;-63
2023/12/03 08:35:35;;;;;;;106.72;65.78;;;10.70;99.90;;;;;;4986901;28;20381;-63
2023/12/03 08:38:00;;;;;;;110.22;65.05;;;10.50;99.90;;;;;;4986981;28;20416;-62
2023/12/03 08:40:26;;;;;;;100.97;64.30;;;10.50;99.90;;;;;;4986610;28;20046;-63
2023/12/03 08:42:52;;;;;;;94.10;64.50;;;10.90;99.90;;;;;;4987840;28;20508;-64
2023/12/03 08:45:17;;;;;;;105.88;66.72;;;10.50;99.90;;;;;;4989937;28;20074;-63
2023/12/03 08:47:43;;;;;;;102.80;63.60;;;10.50;99.90;;;;;;4985424;28;20497;-63
2023/12/03 08:50:09;;;;;;;100.53;63.05;;;10.80;99.90;;;;;;4991443;28;20050;-63
2023/12/03 08:52:34;;;;;;;93.40;67.50;;;11.20;99.90;;;;;;4986484;28;20101;-63
2023/12/03 08:55:02;;;;;;;78.38;61.45;;;11.10;99.90;;;;;;4989417;28;20046;-63
2023/12/03 08:57:28;;;;;;;86.82;62.75;;;10.60;99.90;;;;;;4986950;28;20054;-64
2023/12/03 08:59:54;;;;;;;84.95;63.15;;;11.00;99.90;;;;;;4985604;28;20428;-62
2023/12/03 09:02:20;;;;;;;94.38;64.82;;;10.60;99.90;;;;;;4971286;28;20041;-63
2023/12/03 09:04:45;;;;;;;83.63;61.47;;;11.10;99.90;;;;;;4985372;28;20129;-64
2023/12/03 09:07:11;;;;;;;84.22;63.30;;;11.00;99.90;;;;;;4985456;28;20042;-64
2023/12/03 09:09:37;;;;;;;78.82;61.35;;;11.40;99.90;;;;;;4982704;28;20787;-64
2023/12/03 09:12:03;;;;;;;86.63;62.38;;;11.50;99.90;;;;;;4993511;28;20424;-63
2023/12/03 09:14:28;;;;;;;77.20;62.65;;;11.00;99.90;;;;;;4980345;28;20047;-64
2023/12/03 09:16:55;;;;;;;120.95;66.18;;;10.90;99.90;;;;;;4984729;28;20061;-64
2023/12/03 09:19:20;;;;;;;87.57;64.10;;;10.90;99.90;;;;;;5003771;28;20044;-63
2023/12/03 09:21:46;;;;;;;76.65;60.55;;;11.40;99.90;;;;;;4977807;28;20042;-63
2023/12/03 09:24:15;;;;;;;74.15;60.05;;;11.40;99.90;;;;;;4983181;28;20065;-63
2023/12/03 09:26:43;;;;;;;70.38;60.63;;;11.20;99.90;;;;;;4987402;28;20638;-64
2023/12/03 09:29:10;;;;;;;67.70;55.92;;;11.70;99.90;;;;;;4991132;28;20045;-63
2023/12/03 09:31:36;;;;;;;74.35;59.63;;;11.50;99.90;;;;;;4978038;28;20047;-63
2023/12/03 09:34:01;;;;;;;75.47;60.33;;;11.10;99.90;;;;;;4975804;28;20049;-63
2023/12/03 09:36:27;;;;;;;70.20;59.80;;;11.10;99.90;;;;;;4998590;28;20047;-63
2023/12/03 09:38:52;;;;;;;71.13;56.10;;;11.80;99.90;;;;;;4979484;28;20057;-63
2023/12/03 09:41:20;;;;;;;73.35;60.72;;;11.90;99.90;;;;;;4983806;28;20109;-64
2023/12/03 09:43:50;;;;;;;72.60;58.72;;;11.40;99.90;;;;;;4968677;28;20042;-64
2023/12/03 09:46:15;;;;;;;69.22;59.63;;;11.50;99.90;;;;;;4981924;28;20069;-63
2023/12/03 09:48:44;;;;;;;73.32;59.85;;;12.60;99.90;;;;;;4978586;28;20038;-63
2023/12/03 09:51:11;;;;;;;70.38;58.20;;;11.20;99.90;;;;;;4987419;28;20728;-63
2023/12/03 09:53:44;;;;;;;73.40;57.55;;;11.30;99.90;;;;;;4981180;28;20076;-63
2023/12/03 09:56:14;;;;;;;70.65;58.22;;;11.70;99.90;;;;;;4991995;28;20056;-63
2023/12/03 09:58:42;;;;;;;70.13;56.50;;;11.80;99.90;;;;;;4987632;28;20046;-63
2023/12/03 10:01:08;;;;;;;74.97;59.72;;;11.70;99.90;;;;;;4985967;28;20403;-68
2023/12/03 10:03:34;;;;;;;73.55;59.70;;;11.20;99.90;;;;;;4976615;28;20818;-63
2023/12/03 10:05:59;;;;;;;79.03;60.25;;;11.70;99.90;;;;;;4980999;28;20038;-63
2023/12/03 10:08:25;;;;;;;76.13;58.80;;;11.10;99.90;;;;;;4970928;28;20047;-65
2023/12/03 10:10:58;;;;;;;78.15;59.53;;;11.60;99.90;;;;;;4988452;28;20065;-63
2023/12/03 10:13:24;;;;;;;80.55;59.78;;;11.90;99.90;;;;;;4985382;28;20078;-62
2023/12/03 10:15:50;;;;;;;72.55;54.25;;;11.40;99.90;;;;;;4985067;28;20080;-62
2023/12/03 10:18:16;;;;;;;69.97;58.33;;;11.30;99.90;;;;;;4986431;28;20042;-63
2023/12/03 10:20:42;;;;;;;78.85;59.08;;;11.80;99.90;;;;;;4986995;28;20046;-64
2023/12/03 10:23:14;;;;;;;74.47;54.83;;;11.80;99.90;;;;;;4987595;28;20474;-63
2023/12/03 10:25:40;;;;;;;67.05;56.05;;;12.30;99.90;;;;;;4984974;28;20042;-63
2023/12/03 10:28:08;;;;;;;81.90;60.53;;;11.90;99.90;;;;;;4994168;28;20093;-64
2023/12/03 10:30:35;;;;;;;71.35;56.20;;;11.20;99.90;;;;;;4981419;28;20092;-63
2023/12/03 10:33:01;;;;;;;69.20;54.13;;;13.80;99.90;;;;;;4985065;28;20050;-65
2023/12/03 10:35:32;;;;;;;90.35;60.90;;;11.10;99.90;;;;;;4980654;28;20161;-64
2023/12/03 10:37:58;;;;;;;69.65;54.78;;;12.40;99.90;;;;;;4980688;28;20861;-64
2023/12/03 10:40:25;;;;;;;71.22;53.03;;;11.20;99.90;;;;;;4986541;28;20113;-64
2023/12/03 10:42:50;;;;;;;69.38;55.83;;;11.60;99.90;;;;;;4985160;28;20100;-64
2023/12/03 10:45:16;;;;;;;68.18;53.72;;;11.30;99.90;;;;;;4996672;28;20528;-64
2023/12/03 10:47:42;;;;;;;64.30;54.80;;;11.50;99.90;;;;;;4974130;28;20409;-63
2023/12/03 10:50:10;;;;;;;71.78;53.10;;;11.00;99.90;;;;;;4979787;28;20035;-63
2023/12/03 10:52:38;;;;;;;82.68;60.63;;;11.70;99.90;;;;;;4983494;28;20041;-63
2023/12/03 10:55:05;;;;;;;79.35;57.42;;;11.20;99.90;;;;;;4979618;28;20038;-62
2023/12/03 10:57:33;;;;;;;72.22;56.45;;;11.70;99.90;;;;;;4980723;28;20129;-62
2023/12/03 11:00:10;;;;;;;75.47;59.10;;;11.70;99.90;;;;;;4982804;28;20233;-62
2023/12/03 11:02:45;;;;;;;93.32;64.65;;;11.00;99.90;;;;;;4979401;28;20086;-65
2023/12/03 11:05:22;;;;;;;85.97;59.47;;;11.90;99.90;;;;;;4967255;28;20085;-63
2023/12/03 11:07:49;;;;;;;86.65;62.10;;;11.20;99.90;;;;;;4984231;28;20042;-63
2023/12/03 11:10:14;;;;;;;82.75;61.28;;;11.10;99.90;;;;;;4987061;28;20038;-63
2023/12/03 11:12:40;;;;;;;99.82;68.50;;;11.30;99.90;;;;;;4984148;28;20039;-64
2023/12/03 11:15:08;;;;;;;71.50;54.72;;;11.80;99.90;;;;;;4986386;28;20050;-63
2023/12/03 11:17:40;;;;;;;76.32;59.10;;;11.90;99.90;;;;;;5002083;28;20133;-63
2023/12/03 11:20:20;;;;;;;82.90;60.40;;;11.10;99.90;;;;;;4984804;28;20077;-64
2023/12/03 11:23:00;;;;;;;85.35;60.13;;;11.30;99.90;;;;;;4982688;28;20138;-63
2023/12/03 11:25:34;;;;;;;87.85;61.53;;;11.50;99.90;;;;;;4994319;28;20145;-63
2023/12/03 11:28:00;;;;;;;80.63;60.63;;;11.50;99.90;;;;;;4977997;28;20038;-63
2023/12/03 11:30:40;;;;;;;96.53;66.38;;;11.90;99.90;;;;;;4982845;28;20065;-63
2023/12/03 11:33:19;;;;;;;78.95;59.20;;;11.20;99.90;;;;;;4983455;28;20046;-63
2023/12/03 11:35:46;;;;;;;92.43;64.43;;;11.90;99.90;;;;;;4983215;28;20042;-63
2023/12/03 11:38:18;;;;;;;73.03;58.88;;;11.70;99.90;;;;;;4983084;28;20034;-64
2023/12/03 11:40:43;;;;;;;78.30;58.78;;;10.80;99.90;;;;;;4986358;28;20042;-63
2023/12/03 11:43:25;;;;;;;93.25;66.13;;;11.60;99.90;;;;;;4984919;28;20053;-66
2023/12/03 11:45:51;;;;;;;90.57;62.75;;;11.60;99.90;;;;;;4995982;28;20068;-64
2023/12/03 11:48:18;;;;;;;104.47;67.78;;;11.60;99.90;;;;;;4979092;28;20511;-64
2023/12/03 11:50:46;;;;;;;93.95;65.35;;;11.50;99.90;;;;;;4982988;28;20088;-64
2023/12/03 11:53:15;;;;;;;98.28;68.38;;;11.50;99.90;;;;;;4984417;28;20394;-64
2023/12/03 11:55:43;;;;;;;90.05;63.70;;;11.00;99.90;;;;;;4976657;28;20416;-64
2023/12/03 11:58:09;;;;;;;93.07;64.68;;;10.90;99.90;;;;;;4983336;28;20394;-63
2023/12/03 12:00:37;;;;;;;88.78;62.90;;;11.60;99.90;;;;;;4980873;28;20042;-64
2023/12/03 12:03:05;;;;;;;85.32;60.47;;;10.90;99.90;;;;;;4975561;28;20042;-64
2023/12/03 12:05:31;;;;;;;79.50;60.40;;;11.10;99.90;;;;;;4970186;28;20066;-63
2023/12/03 12:08:03;;;;;;;90.07;63.63;;;11.10;99.90;;;;;;4969636;28;20035;-64
2023/12/03 12:10:33;;;;;;;85.50;63.00;;;11.90;99.90;;;;;;4983904;28;20089;-65
2023/12/03 12:13:00;;;;;;;87.40;62.65;;;11.40;99.90;;;;;;4977630;28;20058;-64
2023/12/03 12:15:26;;;;;;;70.57;54.47;;;11.50;99.90;;;;;;4988671;28;20034;-64
2023/12/03 12:17:52;;;;;;;76.20;57.05;;;12.10;99.90;;;;;;4991004;28;20042;-65
2023/12/03 12:20:36;;;;;;;65.75;52.47;;;12.10;99.90;;;;;;4984200;28;20038;-64
2023/12/03 12:23:03;;;;;;;67.90;52.67;;;11.40;99.90;;;;;;4999052;28;20038;-64
2023/12/03 12:25:29;;;;;;;66.50;53.25;;;11.40;99.90;;;;;;4981514;28;20543;-65